Time;durP1;ratioP1;P1;durP2;ratioP2;P2;SDS_P1;SDS_P2;PMS_P1;PMS_P2;Temp;Humidity;BMP_temperature;BMP_pressure;BME280_temperature;BME280_humidity;BME280_pressure;Samples;Min_cycle;Max_cycle;Signal;HPM_P1;HPM_P2
2022/02/13 00:01:36;;;;;;;;;;;21.70;28.70;;;;;;5039034;28;20008;-58
2022/02/13 00:04:02;;;;;;;;;;;21.70;28.70;;;;;;5043753;28;19928;-59
2022/02/13 00:06:28;;;;;;;;;;;21.70;28.70;;;;;;5053266;28;19904;-59
2022/02/13 00:08:54;;;;;;;;;;;21.70;28.70;;;;;;5045428;28;19982;-57
2022/02/13 00:11:21;;;;;;;;;;;21.60;28.60;;;;;;5053190;28;19904;-59
2022/02/13 00:13:47;;;;;;;;;;;21.70;28.70;;;;;;5045742;28;19905;-57
2022/02/13 00:16:13;;;;;;;;;;;21.70;28.60;;;;;;5048205;28;20237;-57
2022/02/13 00:18:38;;;;;;;;;;;21.70;28.60;;;;;;5046706;28;19960;-59
2022/02/13 00:21:04;;;;;;;;;;;21.60;28.60;;;;;;5039453;28;20282;-59
2022/02/13 00:23:30;;;;;;;;;;;21.60;28.60;;;;;;5044512;28;20212;-56
2022/02/13 00:25:56;;;;;;;;;;;21.60;28.60;;;;;;5042450;28;19970;-58
2022/02/13 00:28:21;;;;;;;;;;;21.60;28.50;;;;;;5045565;28;19905;-56
2022/02/13 00:30:47;;;;;;;;;;;21.60;28.50;;;;;;5041234;28;19913;-58
2022/02/13 00:33:13;;;;;;;;;;;21.70;28.60;;;;;;5024464;28;19911;-58
2022/02/13 00:35:41;;;;;;;;;;;21.60;28.50;;;;;;5047965;28;19927;-56
2022/02/13 00:38:08;;;;;;;;;;;21.60;28.50;;;;;;5040807;28;19940;-60
2022/02/13 00:40:34;;;;;;;;;;;21.60;28.50;;;;;;5038059;28;19917;-58
2022/02/13 00:43:00;;;;;;;;;;;21.60;28.50;;;;;;5041872;28;19999;-55
2022/02/13 00:45:26;;;;;;;;;;;21.60;28.50;;;;;;5041456;28;19940;-59
2022/02/13 00:47:52;;;;;;;;;;;21.60;28.50;;;;;;5048440;28;19905;-55
2022/02/13 00:50:18;;;;;;;;;;;21.60;28.50;;;;;;5044797;28;19971;-57
2022/02/13 00:52:44;;;;;;;;;;;21.50;28.40;;;;;;5037252;28;19905;-59
2022/02/13 00:55:09;;;;;;;;;;;21.50;28.40;;;;;;5040728;28;19905;-56
2022/02/13 00:57:35;;;;;;;;;;;21.60;28.40;;;;;;5053171;28;20323;-58
2022/02/13 01:00:01;;;;;;;;;;;21.50;28.40;;;;;;5041611;28;19913;-58
2022/02/13 01:02:26;;;;;;;;;;;21.60;28.40;;;;;;5038787;28;19904;-59
2022/02/13 01:04:54;;;;;;;;;;;21.50;28.40;;;;;;5043120;28;19905;-58
2022/02/13 01:07:19;;;;;;;;;;;21.50;28.40;;;;;;5037382;28;20297;-55
2022/02/13 01:09:45;;;;;;;;;;;21.50;28.40;;;;;;5046198;28;19912;-58
2022/02/13 01:12:10;;;;;;;;;;;21.50;28.40;;;;;;5051877;28;20235;-59
2022/02/13 01:14:36;;;;;;;;;;;21.50;28.40;;;;;;5042878;28;19917;-54
2022/02/13 01:17:02;;;;;;;;;;;21.50;28.40;;;;;;5037338;28;20282;-58
2022/02/13 01:19:29;;;;;;;;;;;21.50;28.40;;;;;;5042850;28;19905;-58
2022/02/13 01:21:55;;;;;;;;;;;21.50;28.40;;;;;;5039400;28;19916;-58
2022/02/13 01:24:20;;;;;;;;;;;21.50;28.40;;;;;;5041687;28;19904;-54
2022/02/13 01:26:46;;;;;;;;;;;21.50;28.40;;;;;;5049413;28;19909;-56
2022/02/13 01:29:12;;;;;;;;;;;21.50;28.40;;;;;;5051762;28;19912;-55
2022/02/13 01:31:39;;;;;;;;;;;21.50;28.40;;;;;;5042006;28;19904;-57
2022/02/13 01:34:05;;;;;;;;;;;21.40;28.40;;;;;;5052083;28;20009;-57
2022/02/13 01:36:30;;;;;;;;;;;21.40;28.40;;;;;;5035821;28;19914;-58
2022/02/13 01:38:56;;;;;;;;;;;21.40;28.40;;;;;;5041897;28;20267;-58
2022/02/13 01:41:22;;;;;;;;;;;21.40;28.40;;;;;;5048701;28;20328;-52
2022/02/13 01:43:48;;;;;;;;;;;21.50;28.40;;;;;;5046907;28;19931;-55
2022/02/13 01:46:14;;;;;;;;;;;21.40;28.40;;;;;;5045119;28;19904;-58
2022/02/13 01:48:39;;;;;;;;;;;21.50;28.40;;;;;;5054844;28;19915;-59
2022/02/13 01:51:05;;;;;;;;;;;21.40;28.40;;;;;;5038710;28;19967;-60
2022/02/13 01:53:31;;;;;;;;;;;21.40;28.40;;;;;;5031683;28;20012;-56
2022/02/13 01:55:57;;;;;;;;;;;21.40;28.30;;;;;;5042369;28;19916;-58
2022/02/13 01:58:22;;;;;;;;;;;21.40;28.30;;;;;;5037776;28;19955;-60
2022/02/13 02:00:48;;;;;;;;;;;21.40;28.40;;;;;;5041694;28;20000;-58
2022/02/13 02:03:14;;;;;;;;;;;21.40;28.30;;;;;;5041274;28;19962;-58
2022/02/13 02:05:42;;;;;;;;;;;21.40;28.30;;;;;;5046164;28;19905;-57
2022/02/13 02:08:08;;;;;;;;;;;21.40;28.40;;;;;;5036704;28;19996;-57
2022/02/13 02:10:35;;;;;;;;;;;21.40;28.40;;;;;;5040689;28;20407;-58
2022/02/13 02:13:01;;;;;;;;;;;21.40;28.30;;;;;;5037553;28;20243;-57
2022/02/13 02:15:28;;;;;;;;;;;21.40;28.30;;;;;;5038901;28;20316;-57
2022/02/13 02:17:54;;;;;;;;;;;21.40;28.30;;;;;;5038802;28;20008;-59
2022/02/13 02:20:20;;;;;;;;;;;21.40;28.30;;;;;;5046175;28;19948;-56
2022/02/13 02:22:49;;;;;;;;;;;21.40;28.30;;;;;;5039596;28;19905;-58
2022/02/13 02:25:16;;;;;;;;;;;21.40;28.30;;;;;;5049749;28;19905;-57
2022/02/13 02:27:41;;;;;;;;;;;21.40;28.30;;;;;;5026373;28;19905;-56
2022/02/13 02:30:07;;;;;;;;;;;21.40;28.30;;;;;;5041883;28;20204;-55
2022/02/13 02:32:33;;;;;;;;;;;21.40;28.30;;;;;;5028893;28;20051;-59
2022/02/13 02:35:01;;;;;;;;;;;21.40;28.30;;;;;;5036529;28;20363;-56
2022/02/13 02:37:27;;;;;;;;;;;21.40;28.30;;;;;;5040834;28;20335;-58
2022/02/13 02:39:52;;;;;;;;;;;21.40;28.30;;;;;;5053926;28;19904;-59
2022/02/13 02:42:18;;;;;;;;;;;21.40;28.30;;;;;;5045625;28;20213;-56
2022/02/13 02:44:44;;;;;;;;;;;21.40;28.30;;;;;;5048666;28;20220;-60
2022/02/13 02:47:09;;;;;;;;;;;21.40;28.30;;;;;;5031098;28;20255;-56
2022/02/13 02:49:35;;;;;;;;;;;21.40;28.30;;;;;;5044942;28;20320;-58
2022/02/13 02:52:00;;;;;;;;;;;21.40;28.30;;;;;;5019762;28;20000;-59
2022/02/13 02:54:26;;;;;;;;;;;21.30;28.20;;;;;;5051179;28;19948;-59
2022/02/13 02:56:52;;;;;;;;;;;21.30;28.20;;;;;;5050032;28;19904;-57
2022/02/13 02:59:17;;;;;;;;;;;21.30;28.20;;;;;;5052914;28;19966;-57
2022/02/13 03:01:43;;;;;;;;;;;21.30;28.20;;;;;;5043968;28;19905;-59
2022/02/13 03:04:08;;;;;;;;;;;21.30;28.20;;;;;;5048921;28;19935;-58
2022/02/13 03:06:34;;;;;;;;;;;21.30;28.20;;;;;;5033411;28;19904;-56
2022/02/13 03:09:00;;;;;;;;;;;21.30;28.20;;;;;;5025980;28;19924;-57
2022/02/13 03:11:25;;;;;;;;;;;21.30;28.20;;;;;;5046052;28;19915;-60
2022/02/13 03:13:52;;;;;;;;;;;21.30;28.20;;;;;;5042993;28;19905;-55
2022/02/13 03:16:18;;;;;;;;;;;21.30;28.20;;;;;;5026296;28;20605;-58
2022/02/13 03:18:44;;;;;;;;;;;21.30;28.20;;;;;;5046956;28;19916;-60
2022/02/13 03:21:11;;;;;;;;;;;21.30;28.20;;;;;;5020174;28;19917;-59
2022/02/13 03:23:37;;;;;;;;;;;21.20;28.20;;;;;;5048184;28;19904;-56
2022/02/13 03:26:02;;;;;;;;;;;21.30;28.20;;;;;;5020750;28;20304;-58
2022/02/13 03:28:28;;;;;;;;;;;21.20;28.20;;;;;;5043165;28;20085;-60
2022/02/13 03:30:54;;;;;;;;;;;21.20;28.20;;;;;;5050677;28;19924;-58
2022/02/13 03:33:20;;;;;;;;;;;21.20;28.20;;;;;;5051306;28;19905;-58
2022/02/13 03:35:46;;;;;;;;;;;21.20;28.20;;;;;;5039875;28;20004;-60
2022/02/13 03:38:12;;;;;;;;;;;21.20;28.10;;;;;;5034868;28;19905;-54
2022/02/13 03:40:37;;;;;;;;;;;21.20;28.10;;;;;;5047301;28;19904;-56
2022/02/13 03:43:05;;;;;;;;;;;21.20;28.10;;;;;;5045629;28;19905;-57
2022/02/13 03:45:32;;;;;;;;;;;21.20;28.10;;;;;;5048909;28;20343;-58
2022/02/13 03:47:58;;;;;;;;;;;21.20;28.10;;;;;;5052772;28;19991;-56
2022/02/13 03:50:23;;;;;;;;;;;21.20;28.20;;;;;;5041472;28;20016;-57
2022/02/13 03:52:49;;;;;;;;;;;21.20;28.20;;;;;;5048659;28;20351;-59
2022/02/13 03:55:16;;;;;;;;;;;21.20;28.20;;;;;;5047608;28;20217;-57
2022/02/13 03:57:42;;;;;;;;;;;21.20;28.20;;;;;;5038147;28;19905;-53
2022/02/13 04:00:08;;;;;;;;;;;21.10;28.10;;;;;;5043231;28;20340;-59
2022/02/13 04:02:40;;;;;;;;;;;21.10;28.10;;;;;;5039486;28;19967;-58
2022/02/13 04:05:07;;;;;;;;;;;21.10;28.20;;;;;;5041827;28;19916;-57
2022/02/13 04:07:34;;;;;;;;;;;21.10;28.20;;;;;;5038830;28;19936;-58
2022/02/13 04:09:59;;;;;;;;;;;21.10;28.10;;;;;;5040266;28;20232;-59
2022/02/13 04:12:25;;;;;;;;;;;21.10;28.20;;;;;;5045733;28;19909;-58
2022/02/13 04:14:52;;;;;;;;;;;21.10;28.10;;;;;;5052317;28;19909;-59
2022/02/13 04:17:18;;;;;;;;;;;21.10;28.10;;;;;;5034624;28;19948;-60
2022/02/13 04:19:43;;;;;;;;;;;21.10;28.10;;;;;;5035414;28;20271;-60
2022/02/13 04:22:09;;;;;;;;;;;21.10;28.10;;;;;;5044594;28;19913;-55
2022/02/13 04:24:35;;;;;;;;;;;21.10;28.10;;;;;;5051407;28;19927;-58
2022/02/13 04:27:00;;;;;;;;;;;21.00;28.10;;;;;;5036090;28;19905;-55
2022/02/13 04:29:26;;;;;;;;;;;21.10;28.10;;;;;;5035464;28;20023;-54
2022/02/13 04:31:52;;;;;;;;;;;21.10;28.10;;;;;;5041673;28;20227;-54
2022/02/13 04:34:17;;;;;;;;;;;21.10;28.10;;;;;;5038853;28;19905;-55
2022/02/13 04:36:43;;;;;;;;;;;21.00;28.10;;;;;;5051007;28;20327;-54
2022/02/13 04:39:08;;;;;;;;;;;21.00;28.10;;;;;;5051437;28;19909;-59
2022/02/13 04:41:34;;;;;;;;;;;21.00;28.10;;;;;;5044795;28;20307;-58
2022/02/13 04:44:00;;;;;;;;;;;21.00;28.10;;;;;;5054060;28;19904;-60
2022/02/13 04:46:25;;;;;;;;;;;21.00;28.10;;;;;;5048502;28;19970;-58
2022/02/13 04:48:51;;;;;;;;;;;21.00;28.10;;;;;;5052888;28;20003;-59
2022/02/13 04:51:17;;;;;;;;;;;21.00;28.10;;;;;;5045969;28;19936;-59
2022/02/13 04:53:42;;;;;;;;;;;21.00;28.10;;;;;;5044777;28;19970;-56
2022/02/13 04:56:08;;;;;;;;;;;21.00;28.10;;;;;;5047797;28;19915;-59
2022/02/13 04:58:34;;;;;;;;;;;21.00;28.10;;;;;;5037743;28;19935;-58
2022/02/13 05:01:00;;;;;;;;;;;21.00;28.10;;;;;;5042142;28;20373;-59
2022/02/13 05:03:25;;;;;;;;;;;21.00;28.10;;;;;;5048616;28;20011;-58
2022/02/13 05:05:51;;;;;;;;;;;21.00;28.10;;;;;;5049512;28;19905;-58
2022/02/13 05:08:17;;;;;;;;;;;21.00;28.10;;;;;;5023779;28;20012;-58
2022/02/13 05:10:43;;;;;;;;;;;20.90;28.10;;;;;;5049454;28;19995;-58
2022/02/13 05:13:09;;;;;;;;;;;20.90;28.10;;;;;;5033508;28;19909;-58
2022/02/13 05:15:34;;;;;;;;;;;21.00;28.10;;;;;;5046040;28;19905;-58
2022/02/13 05:18:00;;;;;;;;;;;20.90;28.10;;;;;;5044364;28;19905;-58
2022/02/13 05:20:26;;;;;;;;;;;20.90;28.10;;;;;;5037640;28;19905;-57
2022/02/13 05:22:52;;;;;;;;;;;20.90;28.10;;;;;;5041013;28;19912;-58
2022/02/13 05:25:18;;;;;;;;;;;20.90;28.10;;;;;;5053693;28;19904;-58
2022/02/13 05:27:43;;;;;;;;;;;20.90;28.10;;;;;;5024411;28;19905;-58
2022/02/13 05:30:09;;;;;;;;;;;20.90;28.10;;;;;;5037188;28;19924;-58
2022/02/13 05:32:35;;;;;;;;;;;20.90;28.10;;;;;;5044681;28;19905;-57
2022/02/13 05:35:00;;;;;;;;;;;20.90;28.10;;;;;;5041264;28;20278;-59
2022/02/13 05:37:28;;;;;;;;;;;20.90;28.10;;;;;;5047546;28;20320;-53
2022/02/13 05:39:54;;;;;;;;;;;20.90;28.10;;;;;;5048862;28;19905;-55
2022/02/13 05:42:23;;;;;;;;;;;20.90;28.00;;;;;;5048023;28;20232;-56
2022/02/13 05:44:49;;;;;;;;;;;20.90;28.00;;;;;;5054891;28;20304;-58
2022/02/13 05:47:15;;;;;;;;;;;20.80;28.00;;;;;;5031252;28;19916;-60
2022/02/13 05:49:40;;;;;;;;;;;20.80;28.00;;;;;;5025528;28;19913;-56
2022/02/13 05:52:06;;;;;;;;;;;20.80;28.00;;;;;;5049982;28;19958;-57
2022/02/13 05:54:32;;;;;;;;;;;20.80;28.00;;;;;;5035922;28;20359;-58
2022/02/13 05:56:57;;;;;;;;;;;20.80;28.00;;;;;;5038040;28;19958;-59
2022/02/13 05:59:23;;;;;;;;;;;20.80;28.00;;;;;;5036406;28;19924;-57
2022/02/13 06:01:49;;;;;;;;;;;20.80;28.00;;;;;;5039209;28;19920;-58
2022/02/13 06:04:15;;;;;;;;;;;20.80;28.00;;;;;;5047133;28;19905;-59
2022/02/13 06:06:41;;;;;;;;;;;20.80;28.00;;;;;;5052998;28;19905;-57
2022/02/13 06:09:07;;;;;;;;;;;20.80;28.00;;;;;;5049159;28;20279;-59
2022/02/13 06:11:33;;;;;;;;;;;20.80;28.00;;;;;;5055047;28;19915;-59
2022/02/13 06:13:58;;;;;;;;;;;20.80;28.00;;;;;;5039876;28;19909;-56
2022/02/13 06:16:24;;;;;;;;;;;20.80;28.00;;;;;;5045428;28;19972;-60
2022/02/13 06:18:50;;;;;;;;;;;20.80;28.00;;;;;;5041537;28;19946;-60
2022/02/13 06:21:15;;;;;;;;;;;20.80;28.00;;;;;;5033534;28;19905;-60
2022/02/13 06:23:41;;;;;;;;;;;20.80;28.00;;;;;;5048603;28;19905;-56
2022/02/13 06:26:07;;;;;;;;;;;20.80;28.00;;;;;;5052419;28;19904;-56
2022/02/13 06:28:32;;;;;;;;;;;20.80;28.00;;;;;;5047195;28;19920;-58
2022/02/13 06:30:58;;;;;;;;;;;20.80;28.00;;;;;;5046404;28;19916;-58
2022/02/13 06:33:24;;;;;;;;;;;20.80;28.00;;;;;;5044159;28;19958;-54
2022/02/13 06:35:49;;;;;;;;;;;20.70;28.00;;;;;;5049871;28;19912;-59
2022/02/13 06:38:15;;;;;;;;;;;20.70;28.00;;;;;;5042645;28;20271;-60
2022/02/13 06:40:41;;;;;;;;;;;20.70;28.00;;;;;;5037139;28;19916;-58
2022/02/13 06:43:07;;;;;;;;;;;20.70;28.00;;;;;;5046969;28;20233;-59
2022/02/13 06:45:32;;;;;;;;;;;20.70;28.00;;;;;;5036950;28;19962;-58
2022/02/13 06:47:58;;;;;;;;;;;20.70;28.00;;;;;;5040420;28;21458;-56
2022/02/13 06:50:24;;;;;;;;;;;20.70;28.00;;;;;;5040184;28;20122;-56
2022/02/13 06:52:49;;;;;;;;;;;20.70;28.00;;;;;;5050182;28;19908;-58
2022/02/13 06:55:15;;;;;;;;;;;20.70;28.00;;;;;;5045384;28;19909;-58
2022/02/13 06:57:44;;;;;;;;;;;20.70;28.00;;;;;;5044855;28;19915;-60
2022/02/13 07:00:11;;;;;;;;;;;20.70;28.00;;;;;;5045404;28;19912;-56
2022/02/13 07:02:36;;;;;;;;;;;20.70;28.00;;;;;;5045105;28;20331;-58
2022/02/13 07:05:02;;;;;;;;;;;20.70;28.00;;;;;;5052293;28;19905;-59
2022/02/13 07:07:27;;;;;;;;;;;20.70;28.00;;;;;;5052170;28;19910;-58
2022/02/13 07:09:53;;;;;;;;;;;20.70;28.00;;;;;;5038937;28;19924;-59
2022/02/13 07:12:19;;;;;;;;;;;20.70;28.00;;;;;;5044494;28;19964;-58
2022/02/13 07:14:46;;;;;;;;;;;20.70;28.00;;;;;;5039464;28;19905;-57
2022/02/13 07:17:12;;;;;;;;;;;20.70;28.00;;;;;;5036415;28;19916;-56
2022/02/13 07:19:38;;;;;;;;;;;20.60;28.00;;;;;;5027996;28;19915;-59
2022/02/13 07:22:05;;;;;;;;;;;20.60;28.00;;;;;;5019289;28;19905;-60
2022/02/13 07:24:32;;;;;;;;;;;20.60;28.00;;;;;;5044499;28;19904;-60
2022/02/13 07:26:58;;;;;;;;;;;20.60;28.00;;;;;;5045434;28;20011;-54
2022/02/13 07:29:23;;;;;;;;;;;20.60;28.00;;;;;;5047255;28;20007;-59
2022/02/13 07:31:49;;;;;;;;;;;20.60;28.00;;;;;;5045749;28;20016;-59
2022/02/13 07:34:14;;;;;;;;;;;20.60;28.00;;;;;;5048247;28;19917;-56
2022/02/13 07:36:40;;;;;;;;;;;20.60;28.00;;;;;;5046112;28;19959;-56
2022/02/13 07:39:06;;;;;;;;;;;20.60;28.00;;;;;;5042959;28;20012;-59
2022/02/13 07:41:32;;;;;;;;;;;20.60;28.10;;;;;;5045948;28;20239;-57
2022/02/13 07:44:00;;;;;;;;;;;20.60;28.00;;;;;;5043024;28;20231;-59
2022/02/13 07:46:25;;;;;;;;;;;20.60;28.00;;;;;;5044849;28;19916;-56
2022/02/13 07:48:51;;;;;;;;;;;20.60;28.00;;;;;;5040499;28;20209;-55
2022/02/13 07:51:17;;;;;;;;;;;20.60;28.00;;;;;;5048945;28;19908;-60
2022/02/13 07:53:45;;;;;;;;;;;20.60;28.10;;;;;;5026770;28;19928;-61
2022/02/13 07:56:10;;;;;;;;;;;20.60;28.10;;;;;;5042372;28;19905;-62
2022/02/13 07:58:36;;;;;;;;;;;20.70;28.10;;;;;;5035832;28;19904;-60
2022/02/13 08:01:03;;;;;;;;;;;20.80;28.20;;;;;;5040727;28;20298;-57
2022/02/13 08:03:29;;;;;;;;;;;20.80;28.30;;;;;;5035386;28;20231;-55
2022/02/13 08:05:54;;;;;;;;;;;20.90;28.30;;;;;;5027672;28;19920;-60
2022/02/13 08:08:20;;;;;;;;;;;21.00;28.30;;;;;;5057415;28;19908;-58
2022/02/13 08:10:46;;;;;;;;;;;21.10;28.20;;;;;;5051984;28;19909;-60
2022/02/13 08:13:13;;;;;;;;;;;21.20;28.20;;;;;;5039439;28;20004;-57
2022/02/13 08:15:39;;;;;;;;;;;21.30;28.10;;;;;;5042242;28;20371;-58
2022/02/13 08:18:08;;;;;;;;;;;21.40;28.10;;;;;;5047017;28;19917;-58
2022/02/13 08:20:34;;;;;;;;;;;21.60;28.10;;;;;;5043267;28;19940;-56
2022/02/13 08:23:00;;;;;;;;;;;21.70;28.10;;;;;;5039717;28;20215;-59
2022/02/13 08:25:26;;;;;;;;;;;21.80;28.00;;;;;;5032721;28;19905;-57
2022/02/13 08:27:51;;;;;;;;;;;21.90;28.00;;;;;;5045185;28;19927;-57
2022/02/13 08:30:17;;;;;;;;;;;22.00;27.90;;;;;;5052931;28;19912;-53
2022/02/13 08:32:43;;;;;;;;;;;22.10;27.90;;;;;;5021373;28;19971;-59
2022/02/13 08:35:08;;;;;;;;;;;22.10;27.80;;;;;;5053979;28;19909;-57
2022/02/13 08:37:34;;;;;;;;;;;22.20;27.80;;;;;;5042003;28;19905;-59
2022/02/13 08:40:00;;;;;;;;;;;22.30;27.80;;;;;;5057941;28;19909;-58
2022/02/13 08:42:25;;;;;;;;;;;22.40;27.80;;;;;;5056990;28;20312;-57
2022/02/13 08:44:51;;;;;;;;;;;22.50;27.80;;;;;;5056660;28;19959;-55
2022/02/13 08:47:17;;;;;;;;;;;22.50;27.80;;;;;;5052439;28;19913;-56
2022/02/13 08:49:42;;;;;;;;;;;22.60;27.80;;;;;;5051683;28;20356;-54
2022/02/13 08:52:08;;;;;;;;;;;22.60;27.80;;;;;;5032711;28;19904;-56
2022/02/13 08:54:34;;;;;;;;;;;22.70;27.80;;;;;;5037766;28;19915;-59
2022/02/13 08:56:59;;;;;;;;;;;22.70;27.70;;;;;;5045784;28;19916;-56
2022/02/13 08:59:25;;;;;;;;;;;22.80;27.70;;;;;;5037195;28;20052;-57
2022/02/13 09:01:51;;;;;;;;;;;22.90;27.70;;;;;;5048342;28;19904;-62
2022/02/13 09:04:17;;;;;;;;;;;22.90;27.70;;;;;;5038603;28;19909;-58
2022/02/13 09:06:42;;;;;;;;;;;23.00;27.60;;;;;;5038749;28;19909;-57
2022/02/13 09:09:09;;;;;;;;;;;23.10;27.60;;;;;;5040982;28;22326;-60
2022/02/13 09:11:36;;;;;;;;;;;23.10;27.50;;;;;;5038252;28;19905;-60
2022/02/13 09:14:04;;;;;;;;;;;23.10;27.50;;;;;;5049633;28;20004;-54
2022/02/13 09:16:32;;;;;;;;;;;23.20;27.40;;;;;;5039299;28;20018;-53
2022/02/13 09:18:58;;;;;;;;;;;23.30;27.90;;;;;;5040694;28;19909;-55
2022/02/13 09:21:23;;;;;;;;;;;23.30;27.30;;;;;;5053857;28;19905;-56
2022/02/13 09:23:49;;;;;;;;;;;23.40;27.30;;;;;;5049342;28;19998;-58
2022/02/13 09:26:15;;;;;;;;;;;23.40;27.20;;;;;;5054514;28;19935;-59
2022/02/13 09:28:41;;;;;;;;;;;23.40;27.20;;;;;;5050477;28;19958;-60
2022/02/13 09:31:08;;;;;;;;;;;23.50;27.20;;;;;;5038896;28;20332;-52
2022/02/13 09:33:33;;;;;;;;;;;23.50;27.20;;;;;;5057147;28;19904;-53
2022/02/13 09:35:59;;;;;;;;;;;23.60;27.20;;;;;;5051366;28;19958;-56
2022/02/13 09:38:25;;;;;;;;;;;23.60;27.20;;;;;;5057174;28;19904;-52
2022/02/13 09:40:51;;;;;;;;;;;23.60;27.40;;;;;;5021163;28;19909;-55
2022/02/13 09:43:17;;;;;;;;;;;23.70;27.60;;;;;;5037602;28;20319;-54
2022/02/13 09:45:45;;;;;;;;;;;23.80;27.80;;;;;;5050442;28;19951;-51
2022/02/13 09:48:14;;;;;;;;;;;23.80;28.00;;;;;;5056952;28;19905;-51
2022/02/13 09:50:40;;;;;;;;;;;23.90;28.30;;;;;;5056217;28;19909;-46
2022/02/13 09:53:06;;;;;;;;;;;23.90;28.60;;;;;;5057534;28;20332;-51
2022/02/13 09:55:32;;;;;;;;;;;23.90;28.80;;;;;;5038700;28;19958;-48
2022/02/13 09:58:03;;;;;;;;;;;23.90;29.10;;;;;;5057128;28;19974;-48
2022/02/13 10:00:55;;;;;;;;;;;23.90;29.40;;;;;;5056466;28;19923;-49
2022/02/13 10:03:20;;;;;;;;;;;23.90;29.70;;;;;;5023383;28;20323;-50
2022/02/13 10:05:47;;;;;;;;;;;23.90;29.90;;;;;;5053580;28;19915;-52
2022/02/13 10:08:25;;;;;;;;;;;23.90;29.90;;;;;;5056056;28;19904;-54
2022/02/13 10:11:04;;;;;;;;;;;24.00;29.90;;;;;;5057153;28;19913;-54
2022/02/13 10:13:40;;;;;;;;;;;24.00;29.90;;;;;;5052374;28;19944;-54
2022/02/13 10:16:11;;;;;;;;;;;24.00;30.00;;;;;;5053186;28;20232;-52
2022/02/13 10:18:42;;;;;;;;;;;24.00;30.10;;;;;;5055958;28;19908;-54
2022/02/13 10:21:08;;;;;;;;;;;24.00;30.20;;;;;;5056624;28;19905;-53
2022/02/13 10:23:35;;;;;;;;;;;24.00;30.20;;;;;;5056020;28;19940;-56
2022/02/13 10:26:01;;;;;;;;;;;24.10;30.20;;;;;;5054989;28;19958;-52
2022/02/13 10:28:27;;;;;;;;;;;24.10;30.10;;;;;;5055738;28;20227;-54
2022/02/13 10:30:53;;;;;;;;;;;24.00;30.00;;;;;;5056130;28;19912;-52
2022/02/13 10:33:23;;;;;;;;;;;24.10;30.00;;;;;;5055329;28;19908;-53
2022/02/13 10:36:01;;;;;;;;;;;24.00;29.80;;;;;;5045842;28;20308;-57
2022/02/13 10:38:36;;;;;;;;;;;24.00;29.90;;;;;;5047578;28;20399;-57
2022/02/13 10:41:11;;;;;;;;;;;24.00;30.20;;;;;;5055324;28;20366;-55
2022/02/13 10:43:48;;;;;;;;;;;24.00;30.40;;;;;;5037419;28;19909;-56
2022/02/13 10:46:15;;;;;;;;;;;24.00;30.60;;;;;;5053877;28;20331;-53
2022/02/13 10:48:41;;;;;;;;;;;24.00;30.70;;;;;;5040661;28;19916;-58
2022/02/13 10:51:06;;;;;;;;;;;24.00;30.60;;;;;;5041839;28;19913;-57
2022/02/13 10:53:32;;;;;;;;;;;24.00;30.50;;;;;;5045707;28;19909;-56
2022/02/13 10:56:00;;;;;;;;;;;24.00;30.40;;;;;;5041840;28;19964;-52
2022/02/13 10:58:26;;;;;;;;;;;24.00;30.30;;;;;;5043457;28;19904;-60
2022/02/13 11:01:00;;;;;;;;;;;23.90;30.10;;;;;;5041049;28;19912;-52
2022/02/13 11:03:34;;;;;;;;;;;23.90;30.00;;;;;;5038552;28;19913;-56
2022/02/13 11:06:01;;;;;;;;;;;23.90;30.00;;;;;;5040358;28;19909;-54
2022/02/13 11:08:30;;;;;;;;;;;23.90;29.90;;;;;;5038510;28;19948;-53
2022/02/13 11:10:57;;;;;;;;;;;24.00;29.90;;;;;;5035664;28;19917;-60
2022/02/13 11:13:24;;;;;;;;;;;24.00;29.80;;;;;;5048488;28;19916;-55
2022/02/13 11:15:51;;;;;;;;;;;24.00;29.70;;;;;;5049863;28;19973;-53
2022/02/13 11:18:18;;;;;;;;;;;24.00;29.60;;;;;;5050962;28;20700;-56
2022/02/13 11:20:44;;;;;;;;;;;24.00;29.60;;;;;;5045697;28;19943;-63
2022/02/13 11:23:16;;;;;;;;;;;24.00;29.50;;;;;;5048740;28;20376;-57
2022/02/13 11:26:09;;;;;;;;;;;24.00;29.50;;;;;;5055376;28;19916;-56
2022/02/13 11:28:41;;;;;;;;;;;24.00;29.50;;;;;;5034745;28;19909;-49
2022/02/13 11:31:07;;;;;;;;;;;24.00;29.40;;;;;;5046486;28;20327;-58
2022/02/13 11:33:37;;;;;;;;;;;24.00;29.40;;;;;;5043150;28;19921;-51
2022/02/13 11:36:04;;;;;;;;;;;24.00;29.30;;;;;;5030103;28;19947;-53
2022/02/13 11:38:39;;;;;;;;;;;24.00;29.30;;;;;;5026857;28;19924;-53
2022/02/13 11:41:05;;;;;;;;;;;24.00;29.30;;;;;;5041238;28;19905;-55
2022/02/13 11:43:49;;;;;;;;;;;24.00;29.30;;;;;;5045251;28;19909;-48
2022/02/13 11:46:27;;;;;;;;;;;24.00;29.20;;;;;;5036307;28;19905;-53
2022/02/13 11:48:57;;;;;;;;;;;24.00;29.20;;;;;;5036725;28;19905;-51
2022/02/13 11:51:43;;;;;;;;;;;24.00;29.20;;;;;;5038657;28;19963;-55
2022/02/13 11:54:09;;;;;;;;;;;24.00;29.20;;;;;;5027402;28;19905;-56
2022/02/13 11:56:35;;;;;;;;;;;24.00;29.20;;;;;;5043734;28;20301;-52
2022/02/13 11:59:01;;;;;;;;;;;23.90;29.10;;;;;;5046178;28;20342;-55
2022/02/13 12:01:35;;;;;;;;;;;23.90;29.10;;;;;;5042798;28;19904;-51
2022/02/13 12:04:05;;;;;;;;;;;23.90;29.10;;;;;;5054220;28;19905;-52
2022/02/13 12:06:32;;;;;;;;;;;23.90;29.10;;;;;;5010899;28;19928;-52
2022/02/13 12:09:02;;;;;;;;;;;23.90;29.10;;;;;;5041963;28;19916;-52
2022/02/13 12:11:28;;;;;;;;;;;23.90;29.10;;;;;;5048281;28;20008;-56
2022/02/13 12:13:54;;;;;;;;;;;23.90;29.00;;;;;;5046852;28;19917;-53
2022/02/13 12:16:23;;;;;;;;;;;23.90;29.00;;;;;;5042688;28;19904;-56
2022/02/13 12:18:52;;;;;;;;;;;23.90;29.00;;;;;;5052460;28;19917;-57
2022/02/13 12:21:24;;;;;;;;;;;23.90;29.00;;;;;;5043643;28;20395;-55
2022/02/13 12:23:58;;;;;;;;;;;23.80;29.00;;;;;;5052922;28;19974;-53
2022/02/13 12:26:24;;;;;;;;;;;23.80;29.00;;;;;;5049377;28;19913;-51
2022/02/13 12:28:50;;;;;;;;;;;23.80;29.00;;;;;;5042544;28;19905;-51
2022/02/13 12:31:21;;;;;;;;;;;23.80;29.00;;;;;;5046066;28;19963;-52
2022/02/13 12:33:51;;;;;;;;;;;23.80;29.00;;;;;;5046921;28;19906;-54
2022/02/13 12:36:23;;;;;;;;;;;23.80;29.10;;;;;;5037142;28;20027;-55
2022/02/13 12:38:54;;;;;;;;;;;23.70;29.00;;;;;;5039600;28;19916;-57
2022/02/13 12:41:22;;;;;;;;;;;23.70;29.00;;;;;;5042543;28;20013;-53
2022/02/13 12:43:48;;;;;;;;;;;23.70;29.10;;;;;;5046498;28;20348;-53
2022/02/13 12:46:16;;;;;;;;;;;23.70;29.10;;;;;;5046967;28;19981;-55
2022/02/13 12:48:41;;;;;;;;;;;23.70;29.10;;;;;;5048640;28;19904;-57
2022/02/13 12:51:07;;;;;;;;;;;23.70;29.10;;;;;;5043809;28;19924;-51
2022/02/13 12:53:33;;;;;;;;;;;23.70;29.10;;;;;;5047052;28;20240;-55
2022/02/13 12:56:03;;;;;;;;;;;23.70;29.10;;;;;;5048907;28;21676;-59
2022/02/13 12:58:32;;;;;;;;;;;23.70;29.20;;;;;;5038962;28;19975;-53
2022/02/13 13:00:59;;;;;;;;;;;23.70;29.20;;;;;;5047164;28;19947;-57
2022/02/13 13:03:26;;;;;;;;;;;23.70;29.20;;;;;;5052137;28;19905;-52
2022/02/13 13:05:53;;;;;;;;;;;23.70;29.20;;;;;;5055201;28;19905;-53
2022/02/13 13:08:20;;;;;;;;;;;23.70;29.20;;;;;;5057052;28;19970;-54
2022/02/13 13:10:53;;;;;;;;;;;23.70;29.20;;;;;;5038895;28;20007;-57
2022/02/13 13:13:31;;;;;;;;;;;23.70;29.20;;;;;;5054242;28;19916;-54
2022/02/13 13:16:10;;;;;;;;;;;23.70;29.20;;;;;;5057035;28;19936;-59
2022/02/13 13:18:39;;;;;;;;;;;23.70;29.20;;;;;;5055666;28;19912;-56
2022/02/13 13:21:11;;;;;;;;;;;23.70;29.20;;;;;;5046184;28;20350;-53
2022/02/13 13:23:53;;;;;;;;;;;23.70;29.20;;;;;;5031384;28;19913;-53
2022/02/13 13:26:19;;;;;;;;;;;23.70;29.10;;;;;;5047963;28;20234;-58
2022/02/13 13:28:44;;;;;;;;;;;23.70;29.10;;;;;;5038798;28;19905;-60
2022/02/13 13:31:10;;;;;;;;;;;23.70;29.10;;;;;;5046250;28;20342;-54
2022/02/13 13:33:36;;;;;;;;;;;23.70;29.10;;;;;;5039217;28;19916;-54
2022/02/13 13:36:02;;;;;;;;;;;23.70;29.10;;;;;;5058808;28;19908;-58
2022/02/13 13:38:31;;;;;;;;;;;23.70;29.10;;;;;;5046617;28;20013;-54
2022/02/13 13:41:23;;;;;;;;;;;23.70;29.10;;;;;;5053942;28;19905;-57
2022/02/13 13:43:50;;;;;;;;;;;23.70;29.10;;;;;;5040265;28;19912;-57
2022/02/13 13:46:16;;;;;;;;;;;23.60;29.00;;;;;;5036749;28;20007;-52
2022/02/13 13:48:42;;;;;;;;;;;23.70;29.00;;;;;;5036016;28;19992;-57
2022/02/13 13:51:08;;;;;;;;;;;23.60;29.00;;;;;;5044690;28;19927;-51
2022/02/13 13:53:34;;;;;;;;;;;23.60;28.90;;;;;;5045668;28;19916;-54
2022/02/13 13:56:01;;;;;;;;;;;23.60;28.90;;;;;;5039362;28;20331;-54
2022/02/13 13:58:26;;;;;;;;;;;23.60;28.90;;;;;;5030423;28;19966;-56
2022/02/13 14:00:53;;;;;;;;;;;23.60;28.90;;;;;;5036500;28;20275;-53
2022/02/13 14:03:20;;;;;;;;;;;23.60;28.90;;;;;;5049868;28;19970;-54
2022/02/13 14:05:46;;;;;;;;;;;23.60;28.90;;;;;;5043057;28;19982;-56
2022/02/13 14:08:12;;;;;;;;;;;23.60;28.90;;;;;;5039370;28;21506;-60
2022/02/13 14:10:40;;;;;;;;;;;23.60;28.90;;;;;;5039889;28;19928;-52
2022/02/13 14:13:09;;;;;;;;;;;23.60;28.90;;;;;;5046955;28;20288;-58
2022/02/13 14:15:36;;;;;;;;;;;23.60;28.90;;;;;;5047661;28;19951;-55